Time;durP1;ratioP1;P1;durP2;ratioP2;P2;SDS_P1;SDS_P2;PMS_P1;PMS_P2;Temp;Humidity;BMP_temperature;BMP_pressure;BME280_temperature;BME280_humidity;BME280_pressure;Samples;Min_cycle;Max_cycle;Signal;HPM_P1;HPM_P2
2021/05/30 00:00:33;;;;;;;3.60;3.08;;;11.80;81.50;;;;;;4931449;29;20037;-78
2021/05/30 00:02:59;;;;;;;4.38;3.50;;;11.80;82.50;;;;;;4931924;29;20111;-78
2021/05/30 00:05:24;;;;;;;3.28;2.90;;;11.70;83.40;;;;;;4932787;29;20035;-78
2021/05/30 00:07:54;;;;;;;3.80;2.80;;;11.60;85.80;;;;;;4935319;29;20474;-77
2021/05/30 00:10:20;;;;;;;4.82;3.25;;;11.60;86.20;;;;;;4942293;29;20028;-78
2021/05/30 00:12:46;;;;;;;4.03;2.90;;;11.60;88.40;;;;;;4942781;29;20055;-80
2021/05/30 00:15:13;;;;;;;4.57;3.88;;;11.60;89.00;;;;;;4945710;29;20036;-80
2021/05/30 00:17:39;;;;;;;4.57;3.25;;;11.60;90.30;;;;;;4944208;29;20076;-77
2021/05/30 00:20:06;;;;;;;6.05;3.97;;;11.50;91.20;;;;;;4939600;29;20474;-79
2021/05/30 00:22:32;;;;;;;4.90;3.35;;;11.50;92.00;;;;;;4938116;29;20039;-80
2021/05/30 00:24:59;;;;;;;4.65;3.35;;;11.50;92.50;;;;;;4941345;29;20034;-80
2021/05/30 00:27:24;;;;;;;5.75;4.18;;;11.50;93.20;;;;;;4942483;29;20070;-78
2021/05/30 00:29:50;;;;;;;5.32;3.10;;;11.40;94.10;;;;;;4940055;29;20024;-76
2021/05/30 00:32:15;;;;;;;4.82;3.50;;;11.40;94.40;;;;;;4925254;29;20035;-79
2021/05/30 00:34:41;;;;;;;8.40;3.55;;;11.40;94.90;;;;;;4936019;29;20034;-78
2021/05/30 00:37:06;;;;;;;4.60;3.60;;;11.30;95.40;;;;;;4945327;29;20015;-78
2021/05/30 00:39:32;;;;;;;4.85;3.17;;;11.30;95.50;;;;;;4939903;29;20031;-78
2021/05/30 00:41:57;;;;;;;5.90;3.63;;;11.30;95.90;;;;;;4939410;29;20036;-78
2021/05/30 00:44:28;;;;;;;5.10;3.60;;;11.40;96.60;;;;;;4943496;29;20118;-77
2021/05/30 00:46:56;;;;;;;6.57;4.82;;;11.40;96.70;;;;;;4945892;29;20043;-77
2021/05/30 00:49:22;;;;;;;4.97;3.20;;;11.40;96.80;;;;;;4948730;29;20039;-76
2021/05/30 00:51:48;;;;;;;3.50;3.00;;;11.30;97.10;;;;;;4935681;29;20028;-76
2021/05/30 00:54:14;;;;;;;3.50;3.20;;;11.30;97.00;;;;;;4934163;29;20030;-77
2021/05/30 00:56:41;;;;;;;4.65;3.80;;;11.20;97.00;;;;;;4932735;29;20124;-77
2021/05/30 00:59:10;;;;;;;6.05;3.83;;;11.20;97.50;;;;;;4935194;29;20028;-76
2021/05/30 01:01:39;;;;;;;5.35;3.90;;;11.10;97.40;;;;;;4938331;29;20500;-78
2021/05/30 01:04:05;;;;;;;6.50;3.80;;;11.20;98.10;;;;;;4942795;29;20028;-77
2021/05/30 01:06:30;;;;;;;4.93;3.70;;;11.10;98.30;;;;;;4943958;29;20094;-77
2021/05/30 01:08:58;;;;;;;6.95;4.15;;;11.10;98.50;;;;;;4943647;29;20055;-76
2021/05/30 01:11:24;;;;;;;5.22;4.10;;;11.10;98.50;;;;;;4945270;29;20122;-76
2021/05/30 01:13:53;;;;;;;5.82;4.50;;;11.00;98.80;;;;;;4943696;29;20075;-77
2021/05/30 01:16:21;;;;;;;5.00;3.90;;;11.00;99.20;;;;;;4939044;29;20052;-77
2021/05/30 01:18:48;;;;;;;6.57;3.28;;;11.00;99.40;;;;;;4932210;29;20027;-77
2021/05/30 01:21:14;;;;;;;5.10;3.85;;;11.00;99.70;;;;;;4938418;29;20034;-75
2021/05/30 01:23:41;;;;;;;6.03;3.92;;;;;;;;;;4937161;29;20110;-76
2021/05/30 01:26:06;;;;;;;4.90;3.85;;;10.90;99.90;;;;;;4935446;29;20032;-76
2021/05/30 01:28:32;;;;;;;6.55;4.95;;;10.90;99.90;;;;;;4926597;29;20032;-77
2021/05/30 01:30:57;;;;;;;7.03;4.75;;;10.90;99.90;;;;;;4929958;29;20103;-76
2021/05/30 01:33:23;;;;;;;6.43;4.00;;;10.90;99.90;;;;;;4934197;29;20059;-76
2021/05/30 01:35:49;;;;;;;4.68;4.15;;;10.90;99.90;;;;;;4924161;29;20383;-77
2021/05/30 01:38:16;;;;;;;6.60;4.30;;;10.90;99.90;;;;;;4928321;29;20037;-78
2021/05/30 01:40:42;;;;;;;6.60;4.00;;;10.80;99.90;;;;;;4927136;29;20035;-76
2021/05/30 01:43:08;;;;;;;4.90;4.18;;;10.80;99.90;;;;;;4927495;29;20035;-75
2021/05/30 01:45:34;;;;;;;5.82;4.15;;;10.90;99.90;;;;;;4928891;29;20031;-76
2021/05/30 01:48:01;;;;;;;8.02;4.15;;;10.80;99.90;;;;;;4927435;29;20474;-77
2021/05/30 01:50:32;;;;;;;6.45;5.32;;;10.70;99.90;;;;;;4928668;29;20076;-76
2021/05/30 01:53:03;;;;;;;5.68;4.50;;;10.60;99.90;;;;;;4930228;29;20027;-75
2021/05/30 01:55:44;;;;;;;6.75;4.30;;;10.50;99.90;;;;;;4926355;29;20028;-76
2021/05/30 01:58:10;;;;;;;6.80;4.57;;;10.50;99.90;;;;;;4924248;29;20084;-76
2021/05/30 02:00:36;;;;;;;4.57;3.58;;;10.50;99.90;;;;;;4929160;29;20032;-75
2021/05/30 02:03:02;;;;;;;8.18;4.30;;;10.50;99.90;;;;;;4924973;29;20036;-77
2021/05/30 02:05:29;;;;;;;6.65;4.20;;;10.50;99.90;;;;;;4924589;29;20042;-77
2021/05/30 02:07:55;;;;;;;5.38;3.80;;;10.50;99.90;;;;;;4925825;29;20079;-76
2021/05/30 02:10:22;;;;;;;6.80;4.03;;;10.50;99.90;;;;;;4925919;29;20057;-75
2021/05/30 02:12:51;;;;;;;6.35;3.83;;;10.40;99.90;;;;;;4925821;29;20181;-77
2021/05/30 02:15:18;;;;;;;6.78;4.30;;;10.40;99.90;;;;;;4928639;29;20032;-77
2021/05/30 02:17:43;;;;;;;6.57;4.20;;;10.40;99.90;;;;;;4925343;29;20034;-78
2021/05/30 02:20:10;;;;;;;4.57;4.18;;;10.40;99.90;;;;;;4921300;29;20028;-77
2021/05/30 02:22:36;;;;;;;5.15;3.80;;;10.40;99.90;;;;;;4923815;29;20144;-77
2021/05/30 02:25:03;;;;;;;5.43;3.70;;;10.30;99.90;;;;;;4928113;29;20118;-77
2021/05/30 02:27:29;;;;;;;4.82;3.75;;;10.40;99.90;;;;;;4925086;29;20028;-77
2021/05/30 02:29:54;;;;;;;6.22;3.95;;;10.40;99.90;;;;;;4927701;29;20038;-77
2021/05/30 02:32:20;;;;;;;5.05;3.72;;;10.40;99.90;;;;;;4927903;29;20855;-76
2021/05/30 02:34:46;;;;;;;6.63;3.40;;;10.40;99.50;;;;;;4922171;29;20744;-77
2021/05/30 02:37:14;;;;;;;5.05;3.78;;;10.50;98.90;;;;;;4925182;29;20715;-78
2021/05/30 02:39:40;;;;;;;5.47;3.58;;;10.40;98.70;;;;;;4924800;29;20313;-77
2021/05/30 02:42:06;;;;;;;9.05;3.63;;;10.40;99.10;;;;;;4923513;29;20040;-77
2021/05/30 02:44:32;;;;;;;5.45;3.53;;;10.40;98.70;;;;;;4930469;29;20520;-77
2021/05/30 02:46:58;;;;;;;4.07;3.25;;;10.40;98.60;;;;;;4930573;29;20023;-77
2021/05/30 02:49:27;;;;;;;5.00;3.53;;;10.40;98.50;;;;;;4928939;29;20062;-78
2021/05/30 02:51:53;;;;;;;5.32;3.13;;;10.30;98.30;;;;;;4927868;29;20028;-78
2021/05/30 02:54:19;;;;;;;4.70;3.50;;;10.40;98.00;;;;;;4932016;29;20032;-75
2021/05/30 02:56:45;;;;;;;6.13;4.07;;;;;;;;;;4933405;29;20039;-77
2021/05/30 02:59:11;;;;;;;5.32;4.03;;;10.30;97.60;;;;;;4931848;29;20127;-78
2021/05/30 03:01:37;;;;;;;5.63;3.58;;;10.30;97.60;;;;;;4932254;29;20080;-78
2021/05/30 03:04:03;;;;;;;6.20;3.15;;;10.30;98.00;;;;;;4932877;29;20031;-78
2021/05/30 03:06:28;;;;;;;4.32;3.60;;;10.30;97.90;;;;;;4931643;29;20024;-77
2021/05/30 03:08:54;;;;;;;4.85;3.22;;;10.30;98.10;;;;;;4931220;29;20083;-78
2021/05/30 03:11:20;;;;;;;5.50;4.10;;;10.40;98.00;;;;;;4930837;29;20386;-78
2021/05/30 03:13:49;;;;;;;5.97;3.45;;;10.30;98.30;;;;;;4930435;29;20110;-76
2021/05/30 03:16:15;;;;;;;4.78;3.72;;;10.40;98.10;;;;;;4929952;29;20171;-76
2021/05/30 03:18:40;;;;;;;4.68;3.45;;;10.30;98.40;;;;;;4930300;29;20112;-76
2021/05/30 03:21:06;;;;;;;4.20;3.25;;;10.30;98.30;;;;;;4931681;29;20039;-76
2021/05/30 03:23:31;;;;;;;4.43;3.42;;;10.30;98.60;;;;;;4929864;29;20428;-77
2021/05/30 03:25:57;;;;;;;5.05;3.22;;;10.30;98.40;;;;;;4935563;29;20031;-75
2021/05/30 03:28:23;;;;;;;4.80;3.58;;;10.30;98.30;;;;;;4931390;29;20160;-77
2021/05/30 03:30:48;;;;;;;4.85;3.25;;;10.30;98.30;;;;;;4932708;29;20024;-77
2021/05/30 03:33:14;;;;;;;3.95;3.40;;;10.30;98.30;;;;;;4928381;29;20053;-76
2021/05/30 03:35:44;;;;;;;7.30;3.38;;;10.30;98.30;;;;;;4929661;29;20059;-76
2021/05/30 03:38:12;;;;;;;6.32;3.90;;;10.30;98.40;;;;;;4931357;29;20035;-75
2021/05/30 03:40:48;;;;;;;5.35;3.40;;;10.30;98.40;;;;;;4933897;29;20096;-76
2021/05/30 03:43:15;;;;;;;4.05;2.83;;;10.30;98.70;;;;;;4932730;29;20040;-76
2021/05/30 03:45:40;;;;;;;8.80;4.10;;;10.40;98.00;;;;;;4934537;29;20038;-77
2021/05/30 03:48:07;;;;;;;6.72;3.60;;;10.40;97.90;;;;;;4931417;29;20043;-76
2021/05/30 03:50:33;;;;;;;4.45;3.03;;;10.40;97.80;;;;;;4929118;29;20498;-76
2021/05/30 03:52:59;;;;;;;5.93;3.40;;;10.40;97.10;;;;;;4930511;29;20063;-76
2021/05/30 03:55:25;;;;;;;5.00;3.28;;;10.50;97.30;;;;;;4932743;29;20419;-77
2021/05/30 03:57:51;;;;;;;6.15;3.25;;;10.50;97.60;;;;;;4931763;29;20509;-77
2021/05/30 04:00:19;;;;;;;5.00;3.67;;;10.50;97.20;;;;;;4930202;29;20468;-76
2021/05/30 04:02:46;;;;;;;6.90;3.63;;;10.50;97.20;;;;;;4927912;29;20062;-76
2021/05/30 04:05:13;;;;;;;4.18;3.22;;;10.60;97.10;;;;;;4930064;29;20391;-76
2021/05/30 04:07:39;;;;;;;5.65;3.53;;;10.50;97.20;;;;;;4933391;29;20095;-77
2021/05/30 04:10:07;;;;;;;9.77;6.15;;;10.60;97.30;;;;;;4918075;29;20055;-77
2021/05/30 04:12:33;;;;;;;6.63;3.67;;;10.70;97.30;;;;;;4933413;29;20059;-77
2021/05/30 04:14:59;;;;;;;5.43;3.95;;;10.70;97.00;;;;;;4930766;29;20107;-77
2021/05/30 04:17:24;;;;;;;4.70;3.63;;;10.70;97.00;;;;;;4929425;29;20180;-77
2021/05/30 04:19:50;;;;;;;10.00;4.18;;;10.70;97.10;;;;;;4915347;29;20043;-77
2021/05/30 04:22:15;;;;;;;5.18;2.90;;;10.80;97.30;;;;;;4931346;29;20431;-77
2021/05/30 04:24:41;;;;;;;5.30;3.53;;;10.80;97.10;;;;;;4928724;29;20107;-77
2021/05/30 04:27:06;;;;;;;3.78;2.88;;;10.80;97.00;;;;;;4931064;29;20541;-77
2021/05/30 04:29:32;;;;;;;5.07;3.28;;;10.80;96.80;;;;;;4927323;29;20229;-77
2021/05/30 04:31:59;;;;;;;7.40;3.58;;;11.00;96.80;;;;;;4932759;29;20035;-76
2021/05/30 04:34:24;;;;;;;4.45;3.22;;;11.00;96.70;;;;;;4928533;29;20027;-76
2021/05/30 04:36:50;;;;;;;4.07;3.20;;;11.10;96.30;;;;;;4929956;29;20037;-76
2021/05/30 04:39:15;;;;;;;4.63;2.50;;;11.10;95.70;;;;;;4910299;29;20059;-78
2021/05/30 04:41:41;;;;;;;7.20;3.63;;;11.10;96.00;;;;;;4932122;29;20027;-77
2021/05/30 04:44:06;;;;;;;4.07;2.97;;;11.10;96.00;;;;;;4932849;29;20422;-77
2021/05/30 04:46:32;;;;;;;4.07;3.30;;;11.20;96.10;;;;;;4933121;29;20028;-77
2021/05/30 04:48:57;;;;;;;5.03;3.10;;;11.20;96.20;;;;;;4928324;29;20394;-77
2021/05/30 04:51:23;;;;;;;4.22;3.13;;;11.10;96.10;;;;;;4910192;29;20063;-77
2021/05/30 04:53:49;;;;;;;7.97;3.53;;;11.20;96.60;;;;;;4934120;29;20106;-76
2021/05/30 04:56:20;;;;;;;4.90;3.20;;;11.20;96.30;;;;;;4936287;29;20369;-77
2021/05/30 04:58:46;;;;;;;3.97;2.58;;;11.30;96.40;;;;;;4928524;29;20394;-77
2021/05/30 05:01:12;;;;;;;6.20;3.17;;;11.30;96.30;;;;;;4930410;29;20019;-78
2021/05/30 05:03:37;;;;;;;5.85;3.78;;;11.40;96.50;;;;;;4936269;29;20055;-76
2021/05/30 05:06:03;;;;;;;4.40;3.00;;;11.40;96.80;;;;;;4938319;29;20479;-77
2021/05/30 05:08:29;;;;;;;5.53;3.13;;;11.50;96.60;;;;;;4935696;29;20114;-76
2021/05/30 05:10:54;;;;;;;5.90;2.92;;;11.50;96.80;;;;;;4937060;29;20028;-78
2021/05/30 05:13:26;;;;;;;3.20;2.88;;;11.60;96.30;;;;;;4933975;29;20054;-77
2021/05/30 05:15:52;;;;;;;5.15;3.25;;;11.60;96.60;;;;;;4934785;29;20465;-78
2021/05/30 05:18:20;;;;;;;5.47;2.92;;;11.70;96.50;;;;;;4931020;29;20028;-75
2021/05/30 05:20:47;;;;;;;3.92;2.80;;;11.70;96.40;;;;;;4931012;29;20062;-74
2021/05/30 05:23:23;;;;;;;4.13;2.60;;;11.80;96.40;;;;;;4934594;29;20031;-75
2021/05/30 05:25:53;;;;;;;3.97;2.75;;;11.80;95.90;;;;;;4929392;29;20122;-75
2021/05/30 05:28:20;;;;;;;3.75;2.58;;;11.90;95.80;;;;;;4914627;29;20532;-75
2021/05/30 05:30:46;;;;;;;3.17;2.65;;;12.00;95.80;;;;;;4935490;29;20030;-75
2021/05/30 05:33:11;;;;;;;4.20;2.70;;;12.10;95.50;;;;;;4933704;29;20028;-75
2021/05/30 05:35:37;;;;;;;4.95;2.95;;;12.30;95.60;;;;;;4944732;29;20024;-76
2021/05/30 05:38:03;;;;;;;4.85;3.15;;;12.60;94.40;;;;;;4946067;29;20028;-77
2021/05/30 05:40:29;;;;;;;4.97;3.20;;;12.60;94.70;;;;;;4945419;29;20691;-74
2021/05/30 05:42:55;;;;;;;4.03;2.70;;;12.80;94.30;;;;;;4939818;29;20035;-75
2021/05/30 05:45:22;;;;;;;3.55;2.45;;;13.10;93.20;;;;;;4943329;29;20028;-75
2021/05/30 05:47:49;;;;;;;7.15;2.90;;;13.40;92.20;;;;;;4943377;29;20035;-76
2021/05/30 05:50:16;;;;;;;6.25;2.45;;;13.20;92.20;;;;;;4943755;29;20028;-75
2021/05/30 05:52:43;;;;;;;6.50;2.60;;;13.20;92.60;;;;;;4940552;29;20024;-75
2021/05/30 05:55:10;;;;;;;6.05;2.67;;;13.00;92.00;;;;;;4936587;29;20067;-75
2021/05/30 05:57:38;;;;;;;3.75;2.80;;;12.90;92.50;;;;;;4937868;29;20035;-75
2021/05/30 06:00:06;;;;;;;4.35;2.90;;;12.90;92.80;;;;;;4937308;29;20027;-75
2021/05/30 06:02:31;;;;;;;4.20;2.40;;;12.90;92.40;;;;;;4934830;29;20103;-74
2021/05/30 06:04:57;;;;;;;2.65;2.20;;;12.90;92.50;;;;;;4931342;29;20482;-74
2021/05/30 06:07:23;;;;;;;3.97;2.72;;;12.90;92.60;;;;;;4933335;29;20035;-75
2021/05/30 06:09:49;;;;;;;5.53;3.28;;;12.90;92.70;;;;;;4933059;29;20495;-74
2021/05/30 06:12:14;;;;;;;3.42;2.30;;;13.00;92.90;;;;;;4927095;29;20047;-75
2021/05/30 06:14:40;;;;;;;3.72;2.70;;;13.30;91.70;;;;;;4929491;29;20091;-75
2021/05/30 06:17:06;;;;;;;4.10;2.70;;;13.50;91.70;;;;;;4932349;29;20566;-74
2021/05/30 06:19:32;;;;;;;4.75;2.80;;;13.50;91.60;;;;;;4932909;29;20036;-75
2021/05/30 06:21:58;;;;;;;3.95;2.75;;;;;;;;;;4932698;29;20035;-74
2021/05/30 06:24:24;;;;;;;4.97;2.75;;;13.40;90.80;;;;;;4932184;29;20036;-74
2021/05/30 06:26:53;;;;;;;5.07;2.42;;;13.30;90.90;;;;;;4931518;29;20395;-76
2021/05/30 06:29:18;;;;;;;2.92;2.40;;;13.30;90.70;;;;;;4929776;29;20086;-74
2021/05/30 06:31:44;;;;;;;4.45;2.72;;;13.40;91.00;;;;;;4932680;29;20028;-77
2021/05/30 06:34:14;;;;;;;5.20;3.10;;;13.50;90.40;;;;;;4935574;29;20056;-75
2021/05/30 06:36:41;;;;;;;4.80;2.83;;;14.60;86.30;;;;;;4930772;29;20114;-74
2021/05/30 06:39:06;;;;;;;4.80;2.70;;;15.20;82.40;;;;;;4929821;29;20032;-75
2021/05/30 06:41:32;;;;;;;4.47;2.80;;;15.70;79.20;;;;;;4931695;29;20104;-74
2021/05/30 06:43:57;;;;;;;3.55;2.33;;;16.50;75.10;;;;;;4928388;29;20226;-77
2021/05/30 06:46:24;;;;;;;4.72;2.60;;;17.50;70.30;;;;;;4931768;29;20023;-74
2021/05/30 06:48:49;;;;;;;5.63;2.35;;;18.70;63.90;;;;;;4931732;29;20082;-75
2021/05/30 06:51:18;;;;;;;4.60;2.67;;;19.10;60.60;;;;;;4929117;29;20512;-78
2021/05/30 06:53:49;;;;;;;4.28;2.10;;;19.00;59.70;;;;;;4942546;28;20043;-75
2021/05/30 06:56:16;;;;;;;4.95;2.20;;;19.30;53.90;;;;;;4933384;29;20509;-74
2021/05/30 06:58:42;;;;;;;3.80;2.60;;;19.20;54.50;;;;;;4932677;29;20039;-74
2021/05/30 07:01:08;;;;;;;4.10;2.40;;;19.00;55.10;;;;;;4935270;29;20030;-74
2021/05/30 07:03:33;;;;;;;2.80;2.10;;;19.10;54.40;;;;;;4933213;29;20031;-75
2021/05/30 07:06:00;;;;;;;3.72;2.47;;;19.30;53.80;;;;;;4934366;29;20027;-77
2021/05/30 07:08:26;;;;;;;4.20;2.08;;;19.80;52.90;;;;;;4933163;29;20036;-75
2021/05/30 07:10:52;;;;;;;2.67;2.05;;;19.60;52.20;;;;;;4934468;29;20024;-75
2021/05/30 07:13:18;;;;;;;3.83;2.10;;;19.50;51.70;;;;;;4933948;29;20048;-75
2021/05/30 07:15:43;;;;;;;4.43;2.25;;;19.10;51.70;;;;;;4932327;29;20290;-75
2021/05/30 07:18:09;;;;;;;5.10;2.50;;;19.50;51.20;;;;;;4933838;29;20016;-74
2021/05/30 07:20:35;;;;;;;3.28;1.90;;;19.40;51.60;;;;;;4929436;29;20028;-76
2021/05/30 07:23:00;;;;;;;3.15;2.05;;;19.80;50.50;;;;;;4926043;29;20327;-76
2021/05/30 07:25:26;;;;;;;3.70;2.10;;;20.20;49.50;;;;;;4933929;29;20131;-77
2021/05/30 07:27:51;;;;;;;4.40;2.03;;;20.20;49.40;;;;;;4931831;29;20027;-74
2021/05/30 07:30:19;;;;;;;1.98;1.77;;;20.80;48.40;;;;;;4927770;29;20058;-75
2021/05/30 07:32:45;;;;;;;3.67;1.98;;;20.10;49.10;;;;;;4931761;29;20087;-74
2021/05/30 07:35:10;;;;;;;2.83;1.90;;;20.10;49.40;;;;;;4928059;29;20035;-74
2021/05/30 07:37:37;;;;;;;2.60;2.20;;;20.10;48.90;;;;;;4929591;29;20274;-75
2021/05/30 07:40:04;;;;;;;3.38;1.92;;;20.50;49.30;;;;;;4927593;29;20371;-75
2021/05/30 07:42:29;;;;;;;3.85;2.75;;;20.70;48.60;;;;;;4931425;29;20127;-74
2021/05/30 07:44:55;;;;;;;4.65;2.30;;;20.80;49.00;;;;;;4931612;29;20118;-76
2021/05/30 07:47:23;;;;;;;2.95;2.28;;;20.50;49.10;;;;;;4933785;29;20028;-76
2021/05/30 07:49:48;;;;;;;3.90;2.35;;;21.10;48.90;;;;;;4930341;29;20032;-74
2021/05/30 07:52:14;;;;;;;2.80;2.08;;;21.90;48.10;;;;;;4933695;29;20020;-75
2021/05/30 07:54:40;;;;;;;4.72;2.13;;;21.90;47.00;;;;;;4916453;29;20024;-75
2021/05/30 07:57:05;;;;;;;3.00;2.13;;;21.90;46.80;;;;;;4932003;29;20016;-75
2021/05/30 07:59:31;;;;;;;3.10;2.05;;;22.20;45.70;;;;;;4933143;29;20495;-76
2021/05/30 08:01:58;;;;;;;3.35;2.80;;;21.30;46.40;;;;;;4936647;29;20102;-75
2021/05/30 08:04:23;;;;;;;3.00;1.85;;;21.40;45.70;;;;;;4935330;29;20039;-76
2021/05/30 08:06:49;;;;;;;3.08;2.20;;;21.20;45.80;;;;;;4933281;29;20501;-75
2021/05/30 08:09:14;;;;;;;3.85;2.08;;;21.10;46.80;;;;;;4937621;29;20131;-75
2021/05/30 08:11:40;;;;;;;3.40;1.92;;;21.00;46.40;;;;;;4937253;28;20529;-75
2021/05/30 08:14:06;;;;;;;3.53;2.72;;;21.10;46.10;;;;;;4929543;29;20554;-76
2021/05/30 08:16:31;;;;;;;2.42;1.90;;;20.60;46.50;;;;;;4929028;29;20028;-75
2021/05/30 08:18:57;;;;;;;2.85;2.00;;;20.60;45.90;;;;;;4923672;29;20038;-76
2021/05/30 08:21:22;;;;;;;6.20;2.10;;;20.40;46.10;;;;;;4922074;29;20035;-75
2021/05/30 08:23:49;;;;;;;4.35;2.33;;;20.90;45.70;;;;;;4928641;29;20036;-75
2021/05/30 08:26:15;;;;;;;2.80;2.20;;;20.90;46.20;;;;;;4930804;29;20039;-76
2021/05/30 08:28:41;;;;;;;6.28;2.40;;;21.80;45.40;;;;;;4933633;29;20036;-76
2021/05/30 08:31:07;;;;;;;3.95;2.80;;;21.60;45.80;;;;;;4931877;29;20046;-76
2021/05/30 08:33:32;;;;;;;3.42;2.22;;;22.20;44.80;;;;;;4928403;29;20024;-74
2021/05/30 08:35:58;;;;;;;3.15;1.85;;;21.90;44.90;;;;;;4930444;29;20042;-74
2021/05/30 08:38:24;;;;;;;4.95;2.15;;;21.90;44.50;;;;;;4925723;29;20526;-75
2021/05/30 08:40:50;;;;;;;4.40;2.00;;;21.40;44.80;;;;;;4931168;29;20494;-74
2021/05/30 08:43:16;;;;;;;2.65;2.28;;;21.50;45.30;;;;;;4928380;29;20044;-74
2021/05/30 08:45:43;;;;;;;3.25;1.80;;;22.40;44.60;;;;;;4929349;29;21368;-76
2021/05/30 08:48:09;;;;;;;3.47;1.98;;;22.00;44.90;;;;;;4928409;29;20074;-75
2021/05/30 08:50:35;;;;;;;4.93;2.10;;;22.10;44.30;;;;;;4928450;29;20056;-76
2021/05/30 08:53:01;;;;;;;3.78;2.08;;;22.10;44.30;;;;;;4927338;29;20115;-75
2021/05/30 08:55:26;;;;;;;2.72;1.88;;;21.90;43.70;;;;;;4930573;29;20035;-75
2021/05/30 08:57:52;;;;;;;2.65;1.83;;;22.20;43.90;;;;;;4927883;29;20027;-75
2021/05/30 09:00:24;;;;;;;4.03;2.10;;;22.30;43.40;;;;;;4928678;29;20039;-76
2021/05/30 09:03:13;;;;;;;4.80;2.38;;;22.10;43.30;;;;;;4926040;29;20058;-76
2021/05/30 09:05:39;;;;;;;3.28;2.20;;;21.70;43.60;;;;;;4924988;29;20476;-75
2021/05/30 09:08:05;;;;;;;3.70;2.10;;;22.10;43.70;;;;;;4923789;29;20032;-76
2021/05/30 09:10:31;;;;;;;2.75;1.85;;;21.80;43.30;;;;;;4930982;29;20024;-75
2021/05/30 09:13:08;;;;;;;4.38;2.00;;;21.70;44.10;;;;;;4931448;29;20044;-75
2021/05/30 09:15:54;;;;;;;2.08;1.83;;;21.50;43.80;;;;;;4929679;29;20082;-78
2021/05/30 09:18:22;;;;;;;4.05;1.90;;;21.20;43.70;;;;;;4927365;29;20024;-74
2021/05/30 09:21:01;;;;;;;3.13;2.58;;;21.90;43.40;;;;;;4927809;29;20176;-78
2021/05/30 09:23:38;;;;;;;5.57;1.90;;;21.40;43.50;;;;;;4927997;29;20027;-75
2021/05/30 09:26:22;;;;;;;4.13;2.45;;;22.20;43.70;;;;;;4931502;29;20042;-76
2021/05/30 09:29:08;;;;;;;4.75;1.75;;;21.80;43.70;;;;;;4931962;29;20114;-75
2021/05/30 09:31:34;;;;;;;2.33;1.85;;;22.10;43.10;;;;;;4931138;29;20070;-76
2021/05/30 09:34:20;;;;;;;5.43;2.10;;;22.70;43.40;;;;;;4932395;29;20391;-76
2021/05/30 09:36:52;;;;;;;6.40;4.20;;;23.00;42.30;;;;;;4932036;29;20028;-77
2021/05/30 09:39:42;;;;;;;3.05;2.08;;;22.30;42.80;;;;;;4932893;29;20176;-77
2021/05/30 09:42:32;;;;;;;4.95;2.50;;;22.70;43.20;;;;;;4930954;29;20094;-75
2021/05/30 09:45:00;;;;;;;2.92;2.17;;;22.40;43.20;;;;;;4929387;29;20127;-76
2021/05/30 09:47:33;;;;;;;3.55;2.13;;;22.00;43.50;;;;;;4930984;29;20122;-74
2021/05/30 09:49:59;;;;;;;4.85;2.00;;;22.00;43.50;;;;;;4932717;29;20091;-73
2021/05/30 09:52:51;;;;;;;5.03;2.58;;;22.20;43.40;;;;;;4931227;29;20038;-75
2021/05/30 09:55:27;;;;;;;6.15;2.30;;;22.40;44.00;;;;;;4928108;29;20114;-76
2021/05/30 09:58:18;;;;;;;5.43;2.30;;;23.20;42.40;;;;;;4929366;29;20202;-72
2021/05/30 10:00:57;;;;;;;3.70;1.95;;;23.50;42.80;;;;;;4936825;29;20031;-72
2021/05/30 10:03:24;;;;;;;2.60;1.85;;;23.00;42.70;;;;;;4934529;29;20035;-70
2021/05/30 10:05:50;;;;;;;4.72;2.10;;;22.90;42.20;;;;;;4932885;29;20067;-72
2021/05/30 10:08:16;;;;;;;2.38;2.05;;;22.70;43.20;;;;;;4936848;29;20078;-70
2021/05/30 10:10:43;;;;;;;3.58;2.90;;;22.30;42.40;;;;;;4934035;29;20039;-76
2021/05/30 10:13:10;;;;;;;6.32;3.05;;;22.70;43.50;;;;;;4927650;29;20048;-72
2021/05/30 10:15:36;;;;;;;4.53;2.20;;;22.60;43.60;;;;;;4929288;29;20032;-72
2021/05/30 10:18:10;;;;;;;2.63;1.83;;;22.20;43.00;;;;;;4932527;29;20028;-72
2021/05/30 10:20:39;;;;;;;3.58;2.50;;;22.10;42.80;;;;;;4922600;29;20027;-73
2021/05/30 10:23:05;;;;;;;3.95;2.20;;;22.40;43.60;;;;;;4925658;29;20032;-72
2021/05/30 10:25:34;;;;;;;3.75;2.17;;;21.60;43.00;;;;;;4921360;29;20069;-71
2021/05/30 10:28:14;;;;;;;3.95;2.17;;;21.60;43.60;;;;;;4929597;29;20115;-75
2021/05/30 10:30:47;;;;;;;4.00;2.08;;;22.70;43.40;;;;;;4940053;29;20024;-76
2021/05/30 10:33:14;;;;;;;8.85;3.13;;;23.40;42.50;;;;;;4940750;29;20038;-75
2021/05/30 10:35:43;;;;;;;8.27;2.50;;;23.70;43.00;;;;;;4934269;29;20038;-76
2021/05/30 10:38:09;;;;;;;3.67;2.20;;;23.20;42.10;;;;;;4938340;29;20055;-74
2021/05/30 10:40:42;;;;;;;4.38;2.50;;;23.30;42.90;;;;;;4936695;29;20031;-73
2021/05/30 10:43:11;;;;;;;3.63;2.60;;;23.10;43.00;;;;;;4933790;29;20036;-74
2021/05/30 10:45:43;;;;;;;3.17;2.47;;;22.50;43.20;;;;;;4928089;29;20043;-77
2021/05/30 10:48:19;;;;;;;3.85;2.30;;;22.50;42.90;;;;;;4925209;29;20051;-78
2021/05/30 10:53:37;;;;;;;5.15;2.45;;;22.50;43.50;;;;;;4927594;29;20040;-74
2021/05/30 10:56:31;;;;;;;4.65;3.38;;;23.60;42.30;;;;;;4927202;29;20030;-75
2021/05/30 10:59:03;;;;;;;4.22;2.10;;;23.50;42.60;;;;;;4928993;29;20043;-75
2021/05/30 11:01:35;;;;;;;6.13;2.63;;;22.90;43.10;;;;;;4925904;29;20036;-80
2021/05/30 11:04:28;;;;;;;5.35;2.63;;;22.70;43.50;;;;;;4931803;29;20098;-75
2021/05/30 11:07:09;;;;;;;4.40;2.50;;;23.20;43.80;;;;;;4927375;29;20046;-72
2021/05/30 11:10:09;;;;;;;;;;;23.20;43.60;;;;;;4934851;29;20023;-75
2021/05/30 11:12:48;;;;;;;3.75;2.47;;;23.20;43.50;;;;;;4935505;29;19986;-74
2021/05/30 11:15:17;;;;;;;4.38;3.30;;;24.20;42.60;;;;;;4937556;29;20031;-73
2021/05/30 11:17:47;;;;;;;3.28;2.28;;;24.10;43.40;;;;;;4936320;29;20027;-72
2021/05/30 11:20:51;;;;;;;2.60;2.05;;;23.70;42.00;;;;;;4916034;29;20036;-75
2021/05/30 11:23:19;;;;;;;4.20;2.60;;;23.70;42.70;;;;;;4895770;29;20529;-74
2021/05/30 11:25:52;;;;;;;4.63;2.95;;;24.50;41.90;;;;;;4936572;29;20074;-73
2021/05/30 11:28:27;;;;;;;3.92;2.70;;;24.50;42.60;;;;;;4934312;29;20059;-73
2021/05/30 11:31:01;;;;;;;4.53;3.58;;;24.10;41.60;;;;;;4935512;29;20027;-73
2021/05/30 11:33:33;;;;;;;4.50;2.92;;;24.20;41.90;;;;;;4939330;29;20122;-70
2021/05/30 11:36:02;;;;;;;3.35;2.67;;;24.00;42.30;;;;;;4934702;29;20076;-74
2021/05/30 11:38:35;;;;;;;3.00;2.67;;;24.10;41.90;;;;;;4937239;28;20043;-74
2021/05/30 11:41:08;;;;;;;3.42;2.78;;;23.90;41.60;;;;;;4934875;29;20125;-73
2021/05/30 11:43:34;;;;;;;3.22;2.17;;;23.80;42.20;;;;;;4944453;29;20036;-74
2021/05/30 11:46:13;;;;;;;4.03;3.08;;;23.70;42.40;;;;;;4941948;29;20113;-74
